Latest Coastal Weather Observations for Walpole North

IDW60701

Issued at 9:52 pm WST Friday 29 April 2016 (issued every 10 minutes, with the page automatically refreshed every 10 minutes)

About coastal observations | Map of coastal stations | Coastal observations for WA | Marine services | Other Formats
Station Details ID: 009998 Name: NORTH WALPOLE Lat: -34.95 Lon: 116.72 Height: 73.0 m
Data from the previous 72 hours. | See also: Recent months at Walpole North
Date/Time
WST
Temp

°C
Wind Pressure Rain
since 9am
mm
Weather Cloud Vis
km
Sea
Height
m
Swell
Dir
 
Speed
knots
Gust
knots
hPa Trend Height
m
Period
s
Dir
29/09:30pm 11.2 WSW 7 16 1013.7 - 13.8 - - - - - - -
29/09:00pm 10.9 WSW 9 13 1013.4 - 13.6 Rain - - - - - -
29/08:30pm 11.3 W 7 11 1013.0 - 13.4 - - - - - - -
29/08:00pm 12.3 SW 7 12 1012.8 - 12.8 - - - - - - -
29/07:30pm 12.9 SW 9 17 1012.4 - 12.8 - - - - - - -
29/07:00pm 13.2 SW 9 18 1012.0 - 12.8 - - - - - - -
29/06:30pm 13.0 SW 8 13 1011.4 - 12.8 - - - - - - -
29/06:00pm 12.8 SW 7 15 1010.8 - 12.8 Rain - - - - - -
29/05:30pm 13.3 SW 7 14 1010.2 - 12.6 - - - - - - -
29/05:00pm 13.9 WSW 6 11 1009.9 - 12.6 - - - - - - -
29/04:30pm 13.8 WSW 9 15 1009.7 - 12.6 - - - - - - -
29/04:00pm 13.7 SW 9 15 1009.7 - 12.4 - - - - - - -
29/03:30pm 13.7 SW 8 14 1009.5 - 12.4 - - - - - - -
29/03:00pm 13.5 SW 10 18 1009.1 - 11.6 Rain - - - - - -
29/02:30pm 13.9 SW 10 20 1008.8 - 10.8 - - - - - - -
29/02:00pm 14.5 SW 10 16 1008.3 - 10.2 - - - - - - -
29/01:30pm 14.7 W 14 23 1008.0 - 8.0 - - - - - - -
29/01:03pm 16.4 W 14 25 1008.0 - 5.6 - - - - - - -
29/01:00pm 16.8 WNW 14 23 1008.0 - 4.2 - - - - - - -
29/12:42pm 16.3 WNW 15 32 1007.9 - 3.8 - - - - - - -
29/12:30pm 16.1 WNW 14 24 1008.0 - 3.8 - - - - - - -
29/12:00pm 16.0 W 13 21 1008.5 - 3.4 Rain - - - - - -
29/11:30am 16.7 WNW 15 25 1008.4 - 2.4 - - - - - - -
29/11:03am 15.6 WNW 15 28 1008.8 - 1.8 - - - - - - -
29/11:00am 16.0 WNW 13 23 1008.7 - 1.6 - - - - - - -
29/10:31am 15.5 WNW 15 27 1009.0 - 0.6 - - - - - - -
29/10:30am 15.5 WNW 14 27 1009.0 - 0.6 - - - - - - -
29/10:00am 15.9 WNW 15 19 1009.0 - 0.0 - - - - - - -
29/09:30am 15.7 NW 15 23 1009.1 - 0.0 - - - - - - -
29/09:00am 15.0 NW 15 22 1009.3 - 8.6 Recent precip. - - - - - -
29/08:30am 14.2 NW 14 19 1009.4 - 8.6 - - - - - - -
29/08:00am 13.8 NW 12 17 1009.4 - 8.4 - - - - - - -
29/07:30am 13.1 NW 13 19 1009.3 - 8.4 - - - - - - -
29/07:00am 12.6 NW 11 19 1009.4 - 8.4 - - - - - - -
29/06:30am 12.6 NW 14 21 1009.5 - 8.0 - - - - - - -
29/06:00am 13.1 NW 12 19 1009.7 - 7.2 - - - - - - -
29/05:30am 13.3 NW 12 15 1009.8 - 7.2 - - - - - - -
29/05:00am 13.7 NW 11 15 1009.8 - 7.2 - - - - - - -
29/04:30am 13.3 NW 11 14 1010.0 - 7.2 - - - - - - -
29/04:00am 13.4 NW 12 16 1009.8 - 7.2 - - - - - - -
29/03:30am 13.7 WNW 11 18 1010.3 - 7.2 - - - - - - -
29/03:00am 13.7 NW 10 14 1010.3 - 7.2 - - - - - - -
29/02:30am 13.6 NW 8 12 1010.6 - 7.2 - - - - - - -
29/02:00am 14.0 NW 8 13 1011.1 - 7.2 - - - - - - -
29/01:30am 13.6 W 4 7 1011.0 - 7.2 - - - - - - -
29/01:00am 14.2 W 7 13 1011.2 - 7.2 - - - - - - -
29/12:30am 14.1 W 7 13 1011.3 - 7.2 - - - - - - -
29/12:00am 13.2 NW 5 7 1011.2 - 7.2 - - - - - - -
 
Date/Time
WST
Temp

°C
Wind Pressure Rain
since 9am
mm
Weather Cloud Vis
km
Sea
Height
m
Swell
Dir
 
Speed
knots
Gust
knots
hPa Trend Height
m
Period
s
Dir
28/11:30pm 13.3 NW 8 11 1011.4 - 7.2 - - - - - - -
28/11:00pm 13.6 NW 7 10 1011.4 - 7.2 - - - - - - -
28/10:30pm 12.8 WNW 6 8 1011.5 - 7.2 - - - - - - -
28/10:00pm 13.0 W 5 8 1011.7 - 7.2 - - - - - - -
28/09:30pm 14.1 WSW 9 15 1011.9 - 7.2 - - - - - - -
28/09:00pm 14.2 W 10 18 1011.9 - 7.2 - - - - - - -
28/08:30pm 13.8 WNW 6 11 1011.7 - 7.2 - - - - - - -
28/08:00pm 13.8 W 7 14 1011.7 - 7.2 - - - - - - -
28/07:30pm 13.7 W 8 15 1011.7 - 7.2 - - - - - - -
28/07:00pm 13.8 WSW 9 16 1011.5 - 7.2 - - - - - - -
28/06:30pm 13.8 W 9 13 1011.2 - 7.2 - - - - - - -
28/06:00pm 13.9 WSW 10 19 1010.7 - 7.2 - - - - - - -
28/05:30pm 14.2 WSW 10 17 1010.5 - 7.2 - - - - - - -
28/05:00pm 14.9 WSW 13 23 1010.3 - 7.2 - - - - - - -
28/04:30pm 15.5 WSW 14 22 1009.9 - 7.2 - - - - - - -
28/04:08pm 16.1 WSW 15 25 1009.7 - 7.2 - - - - - - -
28/04:00pm 16.2 WSW 17 25 1009.8 - 7.2 - - - - - - -
28/03:30pm 16.2 WSW 16 26 1009.4 - 7.2 - - - - - - -
28/03:22pm 16.6 WSW 15 26 1009.3 - 7.2 - - - - - - -
28/03:00pm 16.0 WSW 15 23 1008.9 - 7.2 - - - - - - -
28/02:30pm 15.9 WSW 17 31 1008.6 - 7.2 - - - - - - -
28/02:03pm 15.9 WSW 15 25 1008.4 - 7.2 - - - - - - -
28/02:00pm 15.9 WSW 14 23 1008.3 - 7.2 - - - - - - -
28/01:31pm 16.0 WSW 15 25 1008.4 - 7.2 - - - - - - -
28/01:30pm 16.3 WSW 14 25 1008.5 - 7.2 - - - - - - -
28/01:00pm 14.1 WSW 17 31 1008.6 - 7.2 - - - - - - -
28/12:30pm 15.4 WSW 18 31 1008.4 - 7.0 - - - - - - -
28/12:11pm 15.2 WSW 15 31 1008.4 - 7.0 - - - - - - -
28/12:00pm 15.3 WSW 15 24 1008.2 - 7.0 Recent precip. - - - - - -
28/11:30am 13.8 WNW 10 17 1007.9 - 7.0 - - - - - - -
28/11:00am 14.0 W 13 23 1008.0 - 5.4 - - - - - - -
28/10:30am 14.7 WNW 13 22 1007.6 - 3.0 - - - - - - -
28/10:00am 14.9 W 12 27 1007.5 - 0.4 - - - - - - -
28/09:30am 14.6 NW 13 19 1007.5 - 0.4 - - - - - - -
28/09:00am 13.8 WNW 14 27 1007.5 - 6.0 Recent precip. - - - - - -
28/08:53am 13.8 NW 16 27 1007.0 - 6.0 - - - - - - -
28/08:30am 13.3 NW 16 24 1007.0 - 6.0 - - - - - - -
28/08:22am 13.4 NW 17 27 1007.3 - 5.6 - - - - - - -
28/08:00am 13.0 NW 18 25 1006.9 - 5.4 - - - - - - -
28/07:30am 12.6 NNW 18 25 1006.5 - 5.2 - - - - - - -
28/07:00am 12.5 NW 18 23 1007.0 - 5.2 - - - - - - -
28/06:30am 12.8 WNW 15 24 1007.8 - 5.0 - - - - - - -
28/06:28am 12.9 NW 15 25 1007.7 - 5.0 - - - - - - -
28/06:00am 13.6 NW 16 23 1007.4 - 4.4 - - - - - - -
28/05:50am 13.5 NW 16 26 1007.3 - 4.4 - - - - - - -
28/05:30am 13.4 NW 16 25 1007.8 - 4.4 - - - - - - -
28/05:00am 13.1 NW 16 24 1007.9 - 4.4 - - - - - - -
28/04:30am 12.7 NW 15 25 1008.2 - 4.4 - - - - - - -
28/04:24am 12.7 NW 15 25 1008.3 - 4.4 - - - - - - -
28/04:00am 12.4 NW 12 21 1008.7 - 4.4 - - - - - - -
28/03:30am 12.3 NW 12 20 1009.1 - 4.4 - - - - - - -
28/03:00am 12.3 NW 14 23 1009.8 - 4.4 - - - - - - -
28/02:30am 11.8 NW 13 17 1010.2 - 4.4 - - - - - - -
28/02:00am 12.1 NW 10 20 1010.6 - 4.4 - - - - - - -
28/01:30am 11.8 NNW 10 15 1010.7 - 4.4 - - - - - - -
28/01:00am 11.6 NW 11 15 1011.0 - 4.4 - - - - - - -
28/12:30am 11.9 NNW 13 19 1011.4 - 4.4 - - - - - - -
28/12:00am 12.0 NW 11 17 1011.8 - 4.4 - - - - - - -
 
Date/Time
WST
Temp

°C
Wind Pressure Rain
since 9am
mm
Weather Cloud Vis
km
Sea
Height
m
Swell
Dir
 
Speed
knots
Gust
knots
hPa Trend Height
m
Period
s
Dir
27/11:30pm 11.8 NW 11 14 1012.3 - 4.4 - - - - - - -
27/11:00pm 11.5 NW 11 16 1012.7 - 4.4 - - - - - - -
27/10:30pm 11.4 NW 10 15 1013.0 - 4.4 - - - - - - -
27/10:00pm 11.3 NW 9 13 1013.1 - 4.4 - - - - - - -
27/09:30pm 11.3 NNW 10 15 1013.4 - 4.4 - - - - - - -
27/09:00pm 11.6 NNW 9 15 1013.8 - 4.4 - - - - - - -
27/08:30pm 11.8 NNW 8 12 1013.8 - 4.4 - - - - - - -
27/08:00pm 11.9 NNW 8 12 1013.9 - 4.4 - - - - - - -
27/07:30pm 11.6 NNW 9 13 1014.0 - 4.4 - - - - - - -
27/07:00pm 11.4 NNW 7 8 1014.2 - 4.4 - - - - - - -
27/06:30pm 11.4 NNW 6 8 1014.1 - 4.4 - - - - - - -
27/06:00pm 11.8 NW 4 5 1014.0 - 4.4 Recent precip. - - - - - -
27/05:30pm 12.4 NW 5 7 1013.9 - 4.2 - - - - - - -
27/05:00pm 13.3 NW 6 9 1013.8 - 4.2 - - - - - - -
27/04:30pm 12.6 NW 5 7 1014.1 - 4.2 - - - - - - -
27/04:00pm 12.9 W 6 14 1014.3 - 4.2 - - - - - - -
27/03:30pm 13.0 W 7 13 1014.2 - 4.0 - - - - - - -
27/03:00pm 13.0 WNW 8 11 1014.3 - 4.0 Recent precip. - - - - - -
27/02:30pm 13.9 WNW 8 13 1014.3 - 3.6 - - - - - - -
27/02:00pm 13.5 WSW 7 12 1014.3 - 3.6 - - - - - - -
27/01:30pm 16.8 W 10 17 1014.0 - 3.4 - - - - - - -
27/01:00pm 15.7 W 8 13 1014.3 - 3.4 - - - - - - -
27/12:30pm 14.5 W 7 11 1014.6 - 3.4 - - - - - - -
27/12:00pm 14.0 NW 7 10 1014.5 - 3.4 Recent precip. - - - - - -
27/11:30am 13.1 NW 10 14 1015.1 - 3.2 - - - - - - -
27/11:00am 13.6 NW 7 11 1015.2 - 2.0 - - - - - - -
27/10:30am 12.3 NW 7 9 1015.4 - 2.0 - - - - - - -
27/10:00am 11.4 NW 7 12 1015.3 - 0.8 - - - - - - -
27/09:30am 11.6 NNW 10 13 1015.3 - 0.2 - - - - - - -
27/09:00am 11.0 NNW 9 12 1015.3 - 8.6 - - - - - - -
27/08:30am 10.4 NW 10 14 1015.2 - 8.6 - - - - - - -
27/08:00am 9.7 NW 6 9 1014.8 - 8.6 - - - - - - -
27/07:30am 9.3 NNW 8 11 1014.4 - 8.4 - - - - - - -
27/07:00am 8.8 CALM 0 3 1014.2 - 7.8 - - - - - - -
27/06:30am 9.4 NW 9 11 1014.0 - 7.8 - - - - - - -
27/06:00am 9.5 NNW 8 13 1014.0 - 7.8 Recent precip. - - - - - -
27/05:30am 9.8 WNW 5 9 1014.1 - 7.4 - - - - - - -
27/05:00am 9.6 NW 7 9 1013.8 - 6.4 - - - - - - -
27/04:30am 9.7 NW 11 16 1013.8 - 6.0 - - - - - - -
27/04:00am 9.7 WNW 4 6 1013.6 - 5.0 - - - - - - -
27/03:30am 9.5 NW 5 7 1013.5 - 5.0 - - - - - - -
27/03:00am 10.0 NW 8 11 1013.6 - 5.0 - - - - - - -
27/02:30am 9.9 NNW 4 6 1013.6 - 5.0 - - - - - - -
27/02:00am 9.8 NW 4 6 1013.6 - 5.0 - - - - - - -
27/01:30am 9.7 WNW 5 7 1013.4 - 5.0 - - - - - - -
27/01:00am 9.9 NW 7 11 1013.0 - 5.0 - - - - - - -
27/12:30am 10.5 NW 5 9 1012.9 - 5.0 - - - - - - -
27/12:00am 10.2 NW 5 7 1012.8 - 5.0 Recent precip. - - - - - -
 
Date/Time
WST
Temp

°C
Wind Pressure Rain
since 9am
mm
Weather Cloud Vis
km
Sea
Height
m
Swell
Dir
 
Speed
knots
Gust
knots
hPa Trend Height
m
Period
s
Dir
26/11:30pm 10.7 NW 6 10 1012.9 - 4.8 - - - - - - -
26/11:00pm 10.5 NW 4 6 1013.0 - 4.8 - - - - - - -
26/10:30pm 10.2 W 3 5 1013.0 - 4.6 - - - - - - -
26/10:00pm 10.5 WNW 5 7 1012.9 - 4.6 - - - - - - -

Other Formats:

Comma delimited format used in spreadsheet applications
http://www.bom.gov.au/fwo/IDW60701/IDW60701.95647.axf

JavaScript Object Notation format (JSON) in row-major order
http://www.bom.gov.au/fwo/IDW60701/IDW60701.95647.json